sensor_id;sensor_type;location;lat;lon;timestamp;P1;durP1;ratioP1;P2;durP2;ratioP2
9224;SDS011;4647;48.072;11.616;2023-11-18T00:01:31;14.00;;;12.60;;
9224;SDS011;4647;48.072;11.616;2023-11-18T00:04:00;11.17;;;10.27;;
9224;SDS011;4647;48.072;11.616;2023-11-18T00:06:30;11.57;;;10.57;;
9224;SDS011;4647;48.072;11.616;2023-11-18T00:09:01;12.07;;;11.07;;
9224;SDS011;4647;48.072;11.616;2023-11-18T00:11:32;13.30;;;12.10;;
9224;SDS011;4647;48.072;11.616;2023-11-18T00:14:01;12.37;;;11.27;;
9224;SDS011;4647;48.072;11.616;2023-11-18T00:16:30;14.17;;;12.73;;
9224;SDS011;4647;48.072;11.616;2023-11-18T00:18:59;11.90;;;10.77;;
9224;SDS011;4647;48.072;11.616;2023-11-18T00:21:30;15.53;;;14.23;;
9224;SDS011;4647;48.072;11.616;2023-11-18T00:24:01;13.60;;;12.30;;
9224;SDS011;4647;48.072;11.616;2023-11-18T00:26:30;11.97;;;10.83;;
9224;SDS011;4647;48.072;11.616;2023-11-18T00:28:59;12.33;;;11.23;;
9224;SDS011;4647;48.072;11.616;2023-11-18T00:31:28;12.27;;;11.17;;
9224;SDS011;4647;48.072;11.616;2023-11-18T00:33:57;11.57;;;10.60;;
9224;SDS011;4647;48.072;11.616;2023-11-18T00:36:25;11.23;;;10.10;;
9224;SDS011;4647;48.072;11.616;2023-11-18T00:38:54;10.73;;;9.83;;
9224;SDS011;4647;48.072;11.616;2023-11-18T00:41:25;13.17;;;11.87;;
9224;SDS011;4647;48.072;11.616;2023-11-18T00:43:54;11.50;;;10.50;;
9224;SDS011;4647;48.072;11.616;2023-11-18T00:46:22;11.63;;;10.53;;
9224;SDS011;4647;48.072;11.616;2023-11-18T00:48:50;10.90;;;9.90;;
9224;SDS011;4647;48.072;11.616;2023-11-18T00:51:19;10.47;;;9.00;;
9224;SDS011;4647;48.072;11.616;2023-11-18T00:53:47;10.30;;;9.50;;
9224;SDS011;4647;48.072;11.616;2023-11-18T00:56:16;9.93;;;9.13;;
9224;SDS011;4647;48.072;11.616;2023-11-18T00:58:49;9.23;;;8.23;;
9224;SDS011;4647;48.072;11.616;2023-11-18T01:01:18;9.20;;;8.40;;
9224;SDS011;4647;48.072;11.616;2023-11-18T01:03:46;9.17;;;8.30;;
9224;SDS011;4647;48.072;11.616;2023-11-18T01:06:15;8.87;;;8.07;;
9224;SDS011;4647;48.072;11.616;2023-11-18T01:08:43;8.03;;;7.40;;
9224;SDS011;4647;48.072;11.616;2023-11-18T01:11:15;7.77;;;7.07;;
9224;SDS011;4647;48.072;11.616;2023-11-18T01:13:44;6.83;;;6.23;;
9224;SDS011;4647;48.072;11.616;2023-11-18T01:16:15;7.27;;;6.67;;
9224;SDS011;4647;48.072;11.616;2023-11-18T01:18:44;7.40;;;6.80;;
9224;SDS011;4647;48.072;11.616;2023-11-18T01:21:14;5.83;;;5.43;;
9224;SDS011;4647;48.072;11.616;2023-11-18T01:23:42;6.27;;;5.77;;
9224;SDS011;4647;48.072;11.616;2023-11-18T01:26:11;6.57;;;6.07;;
9224;SDS011;4647;48.072;11.616;2023-11-18T01:28:40;6.43;;;5.93;;
9224;SDS011;4647;48.072;11.616;2023-11-18T01:31:10;5.70;;;5.20;;
9224;SDS011;4647;48.072;11.616;2023-11-18T01:33:41;5.00;;;4.60;;
9224;SDS011;4647;48.072;11.616;2023-11-18T01:36:10;5.33;;;4.90;;
9224;SDS011;4647;48.072;11.616;2023-11-18T01:38:39;5.00;;;4.60;;
9224;SDS011;4647;48.072;11.616;2023-11-18T01:41:07;5.27;;;4.87;;
9224;SDS011;4647;48.072;11.616;2023-11-18T01:43:36;4.87;;;4.43;;
9224;SDS011;4647;48.072;11.616;2023-11-18T01:46:05;4.80;;;4.40;;
9224;SDS011;4647;48.072;11.616;2023-11-18T01:48:38;4.67;;;4.27;;
9224;SDS011;4647;48.072;11.616;2023-11-18T01:51:11;3.77;;;3.47;;
9224;SDS011;4647;48.072;11.616;2023-11-18T01:53:42;3.40;;;3.20;;
9224;SDS011;4647;48.072;11.616;2023-11-18T01:56:12;3.73;;;3.43;;
9224;SDS011;4647;48.072;11.616;2023-11-18T01:58:41;3.90;;;3.60;;
9224;SDS011;4647;48.072;11.616;2023-11-18T02:01:09;3.50;;;3.27;;
9224;SDS011;4647;48.072;11.616;2023-11-18T02:03:44;3.60;;;3.30;;
9224;SDS011;4647;48.072;11.616;2023-11-18T02:06:13;3.87;;;3.57;;
9224;SDS011;4647;48.072;11.616;2023-11-18T02:08:42;3.37;;;3.17;;
9224;SDS011;4647;48.072;11.616;2023-11-18T02:11:13;3.57;;;3.27;;
9224;SDS011;4647;48.072;11.616;2023-11-18T02:13:48;3.90;;;3.60;;
9224;SDS011;4647;48.072;11.616;2023-11-18T02:16:21;3.77;;;3.47;;
9224;SDS011;4647;48.072;11.616;2023-11-18T02:18:55;3.87;;;3.47;;
9224;SDS011;4647;48.072;11.616;2023-11-18T02:21:24;3.50;;;3.20;;
9224;SDS011;4647;48.072;11.616;2023-11-18T02:23:53;3.53;;;3.23;;
9224;SDS011;4647;48.072;11.616;2023-11-18T02:26:26;3.90;;;3.60;;
9224;SDS011;4647;48.072;11.616;2023-11-18T02:28:55;3.73;;;3.43;;
9224;SDS011;4647;48.072;11.616;2023-11-18T02:31:26;4.00;;;3.57;;
9224;SDS011;4647;48.072;11.616;2023-11-18T02:34:04;3.67;;;3.33;;
9224;SDS011;4647;48.072;11.616;2023-11-18T02:36:40;4.20;;;3.90;;
9224;SDS011;4647;48.072;11.616;2023-11-18T02:39:14;3.97;;;3.67;;
9224;SDS011;4647;48.072;11.616;2023-11-18T02:41:51;3.90;;;3.60;;
9224;SDS011;4647;48.072;11.616;2023-11-18T02:44:21;4.30;;;4.00;;
9224;SDS011;4647;48.072;11.616;2023-11-18T02:46:51;4.00;;;3.70;;
9224;SDS011;4647;48.072;11.616;2023-11-18T02:49:20;4.53;;;4.13;;
9224;SDS011;4647;48.072;11.616;2023-11-18T02:51:48;4.30;;;3.80;;
9224;SDS011;4647;48.072;11.616;2023-11-18T02:54:16;4.00;;;3.70;;
9224;SDS011;4647;48.072;11.616;2023-11-18T02:56:45;3.73;;;3.43;;
9224;SDS011;4647;48.072;11.616;2023-11-18T02:59:16;3.70;;;3.40;;
9224;SDS011;4647;48.072;11.616;2023-11-18T03:01:45;3.77;;;3.47;;
9224;SDS011;4647;48.072;11.616;2023-11-18T03:04:13;3.63;;;3.33;;
9224;SDS011;4647;48.072;11.616;2023-11-18T03:06:44;4.27;;;3.87;;
9224;SDS011;4647;48.072;11.616;2023-11-18T03:09:12;3.87;;;3.57;;
9224;SDS011;4647;48.072;11.616;2023-11-18T03:11:41;3.97;;;3.67;;
9224;SDS011;4647;48.072;11.616;2023-11-18T03:14:09;4.00;;;3.70;;
9224;SDS011;4647;48.072;11.616;2023-11-18T03:16:40;4.10;;;3.80;;
9224;SDS011;4647;48.072;11.616;2023-11-18T03:19:09;4.00;;;3.70;;
9224;SDS011;4647;48.072;11.616;2023-11-18T03:21:39;3.73;;;3.43;;
9224;SDS011;4647;48.072;11.616;2023-11-18T03:24:08;4.57;;;4.17;;
9224;SDS011;4647;48.072;11.616;2023-11-18T03:26:37;4.30;;;4.00;;
9224;SDS011;4647;48.072;11.616;2023-11-18T03:29:05;4.50;;;4.10;;
9224;SDS011;4647;48.072;11.616;2023-11-18T03:31:36;4.57;;;4.17;;
9224;SDS011;4647;48.072;11.616;2023-11-18T03:34:07;4.10;;;3.80;;
9224;SDS011;4647;48.072;11.616;2023-11-18T03:36:35;4.90;;;4.50;;
9224;SDS011;4647;48.072;11.616;2023-11-18T03:39:04;4.13;;;3.83;;
9224;SDS011;4647;48.072;11.616;2023-11-18T03:41:32;4.20;;;3.80;;
9224;SDS011;4647;48.072;11.616;2023-11-18T03:44:02;4.93;;;3.97;;
9224;SDS011;4647;48.072;11.616;2023-11-18T03:46:31;4.80;;;4.40;;
9224;SDS011;4647;48.072;11.616;2023-11-18T03:49:00;4.60;;;4.20;;
9224;SDS011;4647;48.072;11.616;2023-11-18T03:51:31;4.40;;;4.00;;
9224;SDS011;4647;48.072;11.616;2023-11-18T03:54:00;3.93;;;3.63;;
9224;SDS011;4647;48.072;11.616;2023-11-18T03:56:28;4.97;;;3.77;;
9224;SDS011;4647;48.072;11.616;2023-11-18T03:58:56;4.23;;;3.90;;
9224;SDS011;4647;48.072;11.616;2023-11-18T04:01:25;4.87;;;4.47;;
9224;SDS011;4647;48.072;11.616;2023-11-18T04:03:54;5.20;;;4.80;;
9224;SDS011;4647;48.072;11.616;2023-11-18T04:06:23;6.00;;;5.40;;
9224;SDS011;4647;48.072;11.616;2023-11-18T04:08:55;4.53;;;4.23;;
9224;SDS011;4647;48.072;11.616;2023-11-18T04:11:24;5.60;;;5.10;;
9224;SDS011;4647;48.072;11.616;2023-11-18T04:13:52;4.63;;;4.33;;
9224;SDS011;4647;48.072;11.616;2023-11-18T04:16:21;5.70;;;5.20;;
9224;SDS011;4647;48.072;11.616;2023-11-18T04:18:49;5.60;;;5.10;;
9224;SDS011;4647;48.072;11.616;2023-11-18T04:21:17;5.60;;;5.00;;
9224;SDS011;4647;48.072;11.616;2023-11-18T04:23:46;5.50;;;5.10;;
9224;SDS011;4647;48.072;11.616;2023-11-18T04:26:17;5.80;;;5.40;;
9224;SDS011;4647;48.072;11.616;2023-11-18T04:28:45;6.40;;;5.87;;
9224;SDS011;4647;48.072;11.616;2023-11-18T04:31:14;6.60;;;6.00;;
9224;SDS011;4647;48.072;11.616;2023-11-18T04:33:43;6.30;;;5.73;;
9224;SDS011;4647;48.072;11.616;2023-11-18T04:36:11;7.40;;;6.80;;
9224;SDS011;4647;48.072;11.616;2023-11-18T04:38:41;6.20;;;5.70;;
9224;SDS011;4647;48.072;11.616;2023-11-18T04:41:10;5.47;;;5.07;;
9224;SDS011;4647;48.072;11.616;2023-11-18T04:43:41;6.73;;;6.13;;
9224;SDS011;4647;48.072;11.616;2023-11-18T04:46:09;6.40;;;5.90;;
9224;SDS011;4647;48.072;11.616;2023-11-18T04:48:37;6.13;;;5.63;;
9224;SDS011;4647;48.072;11.616;2023-11-18T04:51:06;6.00;;;5.50;;
9224;SDS011;4647;48.072;11.616;2023-11-18T04:53:36;5.83;;;5.33;;
9224;SDS011;4647;48.072;11.616;2023-11-18T04:56:05;6.10;;;5.60;;
9224;SDS011;4647;48.072;11.616;2023-11-18T04:58:35;5.93;;;5.43;;
9224;SDS011;4647;48.072;11.616;2023-11-18T05:01:06;6.27;;;5.77;;
9224;SDS011;4647;48.072;11.616;2023-11-18T05:03:35;6.50;;;5.90;;
9224;SDS011;4647;48.072;11.616;2023-11-18T05:06:05;6.47;;;5.83;;
9224;SDS011;4647;48.072;11.616;2023-11-18T05:08:33;6.47;;;5.97;;
9224;SDS011;4647;48.072;11.616;2023-11-18T05:11:02;6.50;;;6.00;;
9224;SDS011;4647;48.072;11.616;2023-11-18T05:13:29;6.37;;;5.87;;
9224;SDS011;4647;48.072;11.616;2023-11-18T05:15:59;10.53;;;9.60;;
9224;SDS011;4647;48.072;11.616;2023-11-18T05:18:31;9.23;;;8.43;;
9224;SDS011;4647;48.072;11.616;2023-11-18T05:21:02;6.60;;;6.00;;
9224;SDS011;4647;48.072;11.616;2023-11-18T05:23:33;6.90;;;6.20;;
9224;SDS011;4647;48.072;11.616;2023-11-18T05:26:02;6.10;;;5.60;;
9224;SDS011;4647;48.072;11.616;2023-11-18T05:28:32;6.10;;;5.60;;
9224;SDS011;4647;48.072;11.616;2023-11-18T05:31:00;6.10;;;5.60;;
9224;SDS011;4647;48.072;11.616;2023-11-18T05:33:32;5.30;;;4.80;;
9224;SDS011;4647;48.072;11.616;2023-11-18T05:36:02;5.77;;;5.27;;
9224;SDS011;4647;48.072;11.616;2023-11-18T05:38:32;6.03;;;5.53;;
9224;SDS011;4647;48.072;11.616;2023-11-18T05:41:00;7.57;;;6.43;;
9224;SDS011;4647;48.072;11.616;2023-11-18T05:43:32;6.07;;;5.53;;
9224;SDS011;4647;48.072;11.616;2023-11-18T05:46:05;6.20;;;5.70;;
9224;SDS011;4647;48.072;11.616;2023-11-18T05:48:48;7.23;;;6.57;;
9224;SDS011;4647;48.072;11.616;2023-11-18T05:51:20;6.37;;;5.77;;
9224;SDS011;4647;48.072;11.616;2023-11-18T05:53:50;5.97;;;5.47;;
9224;SDS011;4647;48.072;11.616;2023-11-18T05:56:20;5.40;;;4.90;;
9224;SDS011;4647;48.072;11.616;2023-11-18T05:58:50;6.40;;;5.90;;
9224;SDS011;4647;48.072;11.616;2023-11-18T06:01:18;6.20;;;5.70;;
9224;SDS011;4647;48.072;11.616;2023-11-18T06:03:47;5.00;;;4.50;;
9224;SDS011;4647;48.072;11.616;2023-11-18T06:06:16;5.70;;;5.20;;
9224;SDS011;4647;48.072;11.616;2023-11-18T06:08:46;7.17;;;6.57;;
9224;SDS011;4647;48.072;11.616;2023-11-18T06:11:15;6.27;;;5.50;;
9224;SDS011;4647;48.072;11.616;2023-11-18T06:13:44;8.07;;;5.77;;
9224;SDS011;4647;48.072;11.616;2023-11-18T06:16:14;5.97;;;5.40;;
9224;SDS011;4647;48.072;11.616;2023-11-18T06:18:49;5.73;;;5.23;;
9224;SDS011;4647;48.072;11.616;2023-11-18T06:21:18;6.10;;;5.50;;
9224;SDS011;4647;48.072;11.616;2023-11-18T06:23:49;6.50;;;5.93;;
9224;SDS011;4647;48.072;11.616;2023-11-18T06:26:20;5.57;;;5.07;;
9224;SDS011;4647;48.072;11.616;2023-11-18T06:28:49;4.83;;;4.30;;
9224;SDS011;4647;48.072;11.616;2023-11-18T06:31:18;5.97;;;5.47;;
9224;SDS011;4647;48.072;11.616;2023-11-18T06:33:51;16.47;;;12.10;;
9224;SDS011;4647;48.072;11.616;2023-11-18T06:36:20;5.97;;;5.37;;
9224;SDS011;4647;48.072;11.616;2023-11-18T06:38:51;5.87;;;5.37;;
9224;SDS011;4647;48.072;11.616;2023-11-18T06:41:22;6.70;;;5.07;;
9224;SDS011;4647;48.072;11.616;2023-11-18T06:43:58;5.83;;;5.33;;
9224;SDS011;4647;48.072;11.616;2023-11-18T06:46:34;4.60;;;4.30;;
9224;SDS011;4647;48.072;11.616;2023-11-18T06:49:07;6.07;;;5.57;;
9224;SDS011;4647;48.072;11.616;2023-11-18T06:51:40;5.83;;;5.33;;
9224;SDS011;4647;48.072;11.616;2023-11-18T06:54:09;8.00;;;7.20;;
9224;SDS011;4647;48.072;11.616;2023-11-18T06:56:39;8.17;;;6.77;;
9224;SDS011;4647;48.072;11.616;2023-11-18T06:59:11;8.97;;;7.30;;
9224;SDS011;4647;48.072;11.616;2023-11-18T07:01:41;5.87;;;5.37;;
9224;SDS011;4647;48.072;11.616;2023-11-18T07:04:13;6.60;;;6.00;;
9224;SDS011;4647;48.072;11.616;2023-11-18T07:06:42;6.70;;;6.10;;
9224;SDS011;4647;48.072;11.616;2023-11-18T07:09:10;6.23;;;5.50;;
9224;SDS011;4647;48.072;11.616;2023-11-18T07:11:42;5.90;;;5.40;;
9224;SDS011;4647;48.072;11.616;2023-11-18T07:14:12;6.20;;;5.30;;
9224;SDS011;4647;48.072;11.616;2023-11-18T07:16:41;5.97;;;5.43;;
9224;SDS011;4647;48.072;11.616;2023-11-18T07:19:10;5.47;;;5.00;;
9224;SDS011;4647;48.072;11.616;2023-11-18T07:21:45;4.80;;;4.40;;
9224;SDS011;4647;48.072;11.616;2023-11-18T07:24:14;5.27;;;4.80;;
9224;SDS011;4647;48.072;11.616;2023-11-18T07:26:42;5.33;;;4.93;;
9224;SDS011;4647;48.072;11.616;2023-11-18T07:29:11;5.43;;;5.00;;
9224;SDS011;4647;48.072;11.616;2023-11-18T07:31:40;5.57;;;5.07;;
9224;SDS011;4647;48.072;11.616;2023-11-18T07:34:08;5.23;;;4.80;;
9224;SDS011;4647;48.072;11.616;2023-11-18T07:36:39;5.03;;;4.60;;
9224;SDS011;4647;48.072;11.616;2023-11-18T07:39:11;5.37;;;4.87;;
9224;SDS011;4647;48.072;11.616;2023-11-18T07:41:41;5.67;;;5.17;;
9224;SDS011;4647;48.072;11.616;2023-11-18T07:44:09;5.93;;;4.80;;
9224;SDS011;4647;48.072;11.616;2023-11-18T07:46:38;6.80;;;5.60;;
9224;SDS011;4647;48.072;11.616;2023-11-18T07:49:07;5.70;;;4.93;;
9224;SDS011;4647;48.072;11.616;2023-11-18T07:51:39;5.47;;;4.97;;
9224;SDS011;4647;48.072;11.616;2023-11-18T07:54:07;4.80;;;4.30;;
9224;SDS011;4647;48.072;11.616;2023-11-18T07:56:35;5.40;;;4.73;;
9224;SDS011;4647;48.072;11.616;2023-11-18T07:59:04;5.53;;;4.63;;
9224;SDS011;4647;48.072;11.616;2023-11-18T08:01:33;5.50;;;4.30;;
9224;SDS011;4647;48.072;11.616;2023-11-18T08:04:01;4.73;;;4.10;;
9224;SDS011;4647;48.072;11.616;2023-11-18T08:06:32;4.30;;;3.90;;
9224;SDS011;4647;48.072;11.616;2023-11-18T08:09:03;4.10;;;3.80;;
9224;SDS011;4647;48.072;11.616;2023-11-18T08:11:35;3.77;;;3.47;;
9224;SDS011;4647;48.072;11.616;2023-11-18T08:14:04;4.10;;;3.63;;
9224;SDS011;4647;48.072;11.616;2023-11-18T08:16:33;9.43;;;6.73;;
9224;SDS011;4647;48.072;11.616;2023-11-18T08:19:01;5.20;;;4.10;;
9224;SDS011;4647;48.072;11.616;2023-11-18T08:21:33;5.00;;;4.50;;
9224;SDS011;4647;48.072;11.616;2023-11-18T08:24:06;4.57;;;4.17;;
9224;SDS011;4647;48.072;11.616;2023-11-18T08:26:35;3.70;;;3.40;;
9224;SDS011;4647;48.072;11.616;2023-11-18T08:29:04;3.93;;;3.63;;
9224;SDS011;4647;48.072;11.616;2023-11-18T08:31:33;4.90;;;4.00;;
9224;SDS011;4647;48.072;11.616;2023-11-18T08:34:01;3.83;;;3.50;;
9224;SDS011;4647;48.072;11.616;2023-11-18T08:36:30;3.50;;;3.20;;
9224;SDS011;4647;48.072;11.616;2023-11-18T08:38:59;4.30;;;3.23;;
9224;SDS011;4647;48.072;11.616;2023-11-18T08:41:30;3.30;;;3.00;;
9224;SDS011;4647;48.072;11.616;2023-11-18T08:43:59;3.30;;;3.00;;
9224;SDS011;4647;48.072;11.616;2023-11-18T08:46:27;3.50;;;3.20;;
9224;SDS011;4647;48.072;11.616;2023-11-18T08:48:56;5.93;;;3.10;;
9224;SDS011;4647;48.072;11.616;2023-11-18T08:51:31;2.93;;;2.73;;
9224;SDS011;4647;48.072;11.616;2023-11-18T08:54:02;3.40;;;3.10;;
9224;SDS011;4647;48.072;11.616;2023-11-18T08:56:50;3.50;;;3.13;;
9224;SDS011;4647;48.072;11.616;2023-11-18T08:59:19;3.90;;;2.60;;
9224;SDS011;4647;48.072;11.616;2023-11-18T09:01:50;4.33;;;3.93;;
9224;SDS011;4647;48.072;11.616;2023-11-18T09:04:21;3.50;;;3.17;;
9224;SDS011;4647;48.072;11.616;2023-11-18T09:06:50;3.13;;;2.93;;
9224;SDS011;4647;48.072;11.616;2023-11-18T09:09:19;3.83;;;3.03;;
9224;SDS011;4647;48.072;11.616;2023-11-18T09:11:54;3.13;;;2.83;;
9224;SDS011;4647;48.072;11.616;2023-11-18T09:14:25;5.93;;;3.63;;
9224;SDS011;4647;48.072;11.616;2023-11-18T09:16:53;3.20;;;2.90;;
9224;SDS011;4647;48.072;11.616;2023-11-18T09:19:24;6.10;;;3.30;;
9224;SDS011;4647;48.072;11.616;2023-11-18T09:21:52;3.10;;;2.90;;
9224;SDS011;4647;48.072;11.616;2023-11-18T09:24:21;4.03;;;2.83;;
9224;SDS011;4647;48.072;11.616;2023-11-18T09:26:50;3.77;;;3.10;;
9224;SDS011;4647;48.072;11.616;2023-11-18T09:29:22;3.90;;;3.50;;
9224;SDS011;4647;48.072;11.616;2023-11-18T09:31:51;3.00;;;2.47;;
9224;SDS011;4647;48.072;11.616;2023-11-18T09:34:20;2.80;;;2.40;;
9224;SDS011;4647;48.072;11.616;2023-11-18T09:36:52;3.20;;;2.50;;
9224;SDS011;4647;48.072;11.616;2023-11-18T09:39:21;2.87;;;2.60;;
9224;SDS011;4647;48.072;11.616;2023-11-18T09:42:03;2.70;;;2.30;;
9224;SDS011;4647;48.072;11.616;2023-11-18T09:44:38;2.60;;;2.40;;
9224;SDS011;4647;48.072;11.616;2023-11-18T09:47:07;3.13;;;2.50;;
9224;SDS011;4647;48.072;11.616;2023-11-18T09:49:44;2.60;;;2.30;;
9224;SDS011;4647;48.072;11.616;2023-11-18T09:52:15;2.93;;;2.47;;
9224;SDS011;4647;48.072;11.616;2023-11-18T09:54:50;2.73;;;2.27;;
9224;SDS011;4647;48.072;11.616;2023-11-18T09:57:30;5.67;;;2.53;;
9224;SDS011;4647;48.072;11.616;2023-11-18T10:00:08;2.60;;;2.30;;
9224;SDS011;4647;48.072;11.616;2023-11-18T10:02:45;2.90;;;2.30;;
9224;SDS011;4647;48.072;11.616;2023-11-18T10:05:19;1.97;;;1.77;;
9224;SDS011;4647;48.072;11.616;2023-11-18T10:07:52;2.37;;;2.10;;
9224;SDS011;4647;48.072;11.616;2023-11-18T10:10:23;2.30;;;2.10;;
9224;SDS011;4647;48.072;11.616;2023-11-18T10:13:01;2.40;;;2.10;;
9224;SDS011;4647;48.072;11.616;2023-11-18T10:15:36;5.27;;;1.70;;
9224;SDS011;4647;48.072;11.616;2023-11-18T10:18:04;2.07;;;1.63;;
9224;SDS011;4647;48.072;11.616;2023-11-18T10:20:47;2.33;;;1.70;;
9224;SDS011;4647;48.072;11.616;2023-11-18T10:23:17;2.13;;;1.90;;
9224;SDS011;4647;48.072;11.616;2023-11-18T10:25:53;5.00;;;1.60;;
9224;SDS011;4647;48.072;11.616;2023-11-18T10:28:23;1.70;;;1.60;;
9224;SDS011;4647;48.072;11.616;2023-11-18T10:30:55;1.47;;;1.33;;
9224;SDS011;4647;48.072;11.616;2023-11-18T10:33:28;1.90;;;1.60;;
9224;SDS011;4647;48.072;11.616;2023-11-18T10:35:58;2.40;;;1.60;;
9224;SDS011;4647;48.072;11.616;2023-11-18T10:38:29;1.70;;;1.60;;
9224;SDS011;4647;48.072;11.616;2023-11-18T10:40:59;1.60;;;1.50;;
9224;SDS011;4647;48.072;11.616;2023-11-18T10:43:33;1.53;;;1.40;;
9224;SDS011;4647;48.072;11.616;2023-11-18T10:46:08;1.70;;;1.60;;
9224;SDS011;4647;48.072;11.616;2023-11-18T10:48:40;2.13;;;1.50;;
9224;SDS011;4647;48.072;11.616;2023-11-18T10:51:09;2.23;;;1.40;;
9224;SDS011;4647;48.072;11.616;2023-11-18T10:53:41;1.60;;;1.50;;
9224;SDS011;4647;48.072;11.616;2023-11-18T10:56:18;1.60;;;1.50;;
9224;SDS011;4647;48.072;11.616;2023-11-18T10:58:51;9.83;;;5.43;;
9224;SDS011;4647;48.072;11.616;2023-11-18T11:01:29;5.30;;;2.63;;
9224;SDS011;4647;48.072;11.616;2023-11-18T11:04:04;2.73;;;1.60;;
9224;SDS011;4647;48.072;11.616;2023-11-18T11:06:35;1.30;;;1.20;;
9224;SDS011;4647;48.072;11.616;2023-11-18T11:09:11;8.77;;;4.83;;
9224;SDS011;4647;48.072;11.616;2023-11-18T11:11:45;2.57;;;1.80;;
9224;SDS011;4647;48.072;11.616;2023-11-18T11:14:16;2.77;;;1.33;;
9224;SDS011;4647;48.072;11.616;2023-11-18T11:16:54;1.90;;;1.43;;
9224;SDS011;4647;48.072;11.616;2023-11-18T11:19:25;1.40;;;1.30;;
9224;SDS011;4647;48.072;11.616;2023-11-18T11:22:00;1.83;;;1.50;;
9224;SDS011;4647;48.072;11.616;2023-11-18T11:24:40;1.70;;;1.20;;
9224;SDS011;4647;48.072;11.616;2023-11-18T11:27:23;2.90;;;1.60;;
9224;SDS011;4647;48.072;11.616;2023-11-18T11:30:02;1.57;;;1.33;;
9224;SDS011;4647;48.072;11.616;2023-11-18T11:32:43;2.57;;;1.30;;
9224;SDS011;4647;48.072;11.616;2023-11-18T11:35:22;1.83;;;1.40;;
9224;SDS011;4647;48.072;11.616;2023-11-18T11:37:52;2.90;;;1.40;;
9224;SDS011;4647;48.072;11.616;2023-11-18T11:40:34;1.63;;;1.30;;
9224;SDS011;4647;48.072;11.616;2023-11-18T11:43:04;3.13;;;1.30;;
9224;SDS011;4647;48.072;11.616;2023-11-18T11:45:35;3.20;;;1.20;;
9224;SDS011;4647;48.072;11.616;2023-11-18T11:48:10;1.20;;;1.10;;
9224;SDS011;4647;48.072;11.616;2023-11-18T11:53:39;1.77;;;1.23;;
9224;SDS011;4647;48.072;11.616;2023-11-18T11:56:13;3.30;;;1.60;;
9224;SDS011;4647;48.072;11.616;2023-11-18T11:58:46;1.63;;;1.33;;
9224;SDS011;4647;48.072;11.616;2023-11-18T12:01:27;2.03;;;1.13;;
9224;SDS011;4647;48.072;11.616;2023-11-18T12:04:06;3.50;;;1.30;;
9224;SDS011;4647;48.072;11.616;2023-11-18T12:06:46;1.93;;;1.30;;
9224;SDS011;4647;48.072;11.616;2023-11-18T12:09:18;2.00;;;1.03;;
9224;SDS011;4647;48.072;11.616;2023-11-18T12:11:47;1.60;;;1.20;;
9224;SDS011;4647;48.072;11.616;2023-11-18T12:14:16;1.60;;;1.10;;
9224;SDS011;4647;48.072;11.616;2023-11-18T12:17:06;3.20;;;1.30;;
9224;SDS011;4647;48.072;11.616;2023-11-18T12:19:41;2.47;;;1.30;;
9224;SDS011;4647;48.072;11.616;2023-11-18T12:22:16;2.60;;;1.60;;
9224;SDS011;4647;48.072;11.616;2023-11-18T12:28:08;1.97;;;1.40;;
9224;SDS011;4647;48.072;11.616;2023-11-18T12:30:43;2.43;;;1.57;;
9224;SDS011;4647;48.072;11.616;2023-11-18T12:36:47;2.70;;;1.40;;
9224;SDS011;4647;48.072;11.616;2023-11-18T12:39:56;4.50;;;1.47;;
9224;SDS011;4647;48.072;11.616;2023-11-18T12:45:43;2.20;;;1.20;;
9224;SDS011;4647;48.072;11.616;2023-11-18T12:48:26;2.87;;;1.40;;
9224;SDS011;4647;48.072;11.616;2023-11-18T12:50:59;2.50;;;1.20;;
9224;SDS011;4647;48.072;11.616;2023-11-18T12:53:37;2.60;;;1.37;;
9224;SDS011;4647;48.072;11.616;2023-11-18T12:56:06;2.57;;;1.40;;
9224;SDS011;4647;48.072;11.616;2023-11-18T12:58:39;3.50;;;1.60;;
9224;SDS011;4647;48.072;11.616;2023-11-18T13:01:08;1.50;;;1.27;;
9224;SDS011;4647;48.072;11.616;2023-11-18T13:03:39;3.20;;;1.30;;
9224;SDS011;4647;48.072;11.616;2023-11-18T13:06:08;2.80;;;1.40;;
9224;SDS011;4647;48.072;11.616;2023-11-18T13:08:39;2.07;;;1.30;;
9224;SDS011;4647;48.072;11.616;2023-11-18T13:11:08;3.03;;;1.40;;
9224;SDS011;4647;48.072;11.616;2023-11-18T13:13:40;3.47;;;1.70;;
9224;SDS011;4647;48.072;11.616;2023-11-18T13:16:09;3.43;;;1.50;;
9224;SDS011;4647;48.072;11.616;2023-11-18T13:18:42;3.73;;;1.63;;
9224;SDS011;4647;48.072;11.616;2023-11-18T13:21:14;3.33;;;1.60;;
9224;SDS011;4647;48.072;11.616;2023-11-18T13:23:51;3.27;;;1.53;;
9224;SDS011;4647;48.072;11.616;2023-11-18T13:26:20;4.27;;;1.77;;
9224;SDS011;4647;48.072;11.616;2023-11-18T13:28:49;2.20;;;1.50;;
9224;SDS011;4647;48.072;11.616;2023-11-18T13:31:19;2.43;;;1.43;;
9224;SDS011;4647;48.072;11.616;2023-11-18T13:33:47;1.70;;;1.40;;
9224;SDS011;4647;48.072;11.616;2023-11-18T13:36:16;4.17;;;1.83;;
9224;SDS011;4647;48.072;11.616;2023-11-18T13:38:48;3.87;;;1.70;;
9224;SDS011;4647;48.072;11.616;2023-11-18T13:41:29;2.60;;;1.57;;
9224;SDS011;4647;48.072;11.616;2023-11-18T13:43:59;2.43;;;1.43;;
9224;SDS011;4647;48.072;11.616;2023-11-18T13:46:28;1.47;;;1.20;;
9224;SDS011;4647;48.072;11.616;2023-11-18T13:48:57;2.80;;;1.43;;
9224;SDS011;4647;48.072;11.616;2023-11-18T13:51:25;2.60;;;1.77;;
9224;SDS011;4647;48.072;11.616;2023-11-18T13:53:58;1.90;;;1.30;;
9224;SDS011;4647;48.072;11.616;2023-11-18T13:56:27;2.47;;;1.57;;
9224;SDS011;4647;48.072;11.616;2023-11-18T13:58:57;3.07;;;1.63;;
9224;SDS011;4647;48.072;11.616;2023-11-18T14:01:26;3.03;;;1.57;;
9224;SDS011;4647;48.072;11.616;2023-11-18T14:03:56;3.60;;;1.77;;
9224;SDS011;4647;48.072;11.616;2023-11-18T14:06:30;2.53;;;1.20;;
9224;SDS011;4647;48.072;11.616;2023-11-18T14:09:01;1.97;;;1.30;;
9224;SDS011;4647;48.072;11.616;2023-11-18T14:11:29;1.53;;;1.40;;
9224;SDS011;4647;48.072;11.616;2023-11-18T14:13:59;2.43;;;1.40;;
9224;SDS011;4647;48.072;11.616;2023-11-18T14:16:27;2.57;;;1.50;;
9224;SDS011;4647;48.072;11.616;2023-11-18T14:18:56;2.30;;;1.47;;
9224;SDS011;4647;48.072;11.616;2023-11-18T14:21:25;1.53;;;1.23;;
9224;SDS011;4647;48.072;11.616;2023-11-18T14:23:53;2.93;;;1.47;;
9224;SDS011;4647;48.072;11.616;2023-11-18T14:26:28;1.33;;;1.20;;
9224;SDS011;4647;48.072;11.616;2023-11-18T14:28:56;3.53;;;1.43;;
9224;SDS011;4647;48.072;11.616;2023-11-18T14:31:25;2.13;;;1.30;;
9224;SDS011;4647;48.072;11.616;2023-11-18T14:33:54;1.93;;;1.20;;
9224;SDS011;4647;48.072;11.616;2023-11-18T14:36:23;1.53;;;1.33;;
9224;SDS011;4647;48.072;11.616;2023-11-18T14:38:52;2.60;;;1.50;;
9224;SDS011;4647;48.072;11.616;2023-11-18T14:41:21;3.40;;;1.40;;
9224;SDS011;4647;48.072;11.616;2023-11-18T14:43:53;2.77;;;1.70;;
9224;SDS011;4647;48.072;11.616;2023-11-18T14:46:22;3.33;;;1.97;;
9224;SDS011;4647;48.072;11.616;2023-11-18T14:48:52;3.67;;;1.60;;
9224;SDS011;4647;48.072;11.616;2023-11-18T14:51:21;2.73;;;1.90;;
9224;SDS011;4647;48.072;11.616;2023-11-18T14:53:50;3.20;;;2.00;;
9224;SDS011;4647;48.072;11.616;2023-11-18T14:56:19;3.27;;;1.80;;
9224;SDS011;4647;48.072;11.616;2023-11-18T14:58:47;3.20;;;1.70;;
9224;SDS011;4647;48.072;11.616;2023-11-18T15:01:19;3.37;;;1.73;;
9224;SDS011;4647;48.072;11.616;2023-11-18T15:03:48;2.67;;;1.40;;
9224;SDS011;4647;48.072;11.616;2023-11-18T15:06:23;4.33;;;1.87;;
9224;SDS011;4647;48.072;11.616;2023-11-18T15:08:52;2.10;;;1.50;;
9224;SDS011;4647;48.072;11.616;2023-11-18T15:11:22;5.80;;;2.10;;
9224;SDS011;4647;48.072;11.616;2023-11-18T15:13:51;4.57;;;2.00;;
9224;SDS011;4647;48.072;11.616;2023-11-18T15:16:24;2.60;;;1.83;;
9224;SDS011;4647;48.072;11.616;2023-11-18T15:18:52;3.27;;;2.00;;
9224;SDS011;4647;48.072;11.616;2023-11-18T15:21:22;2.83;;;1.90;;
9224;SDS011;4647;48.072;11.616;2023-11-18T15:23:50;3.50;;;2.57;;
9224;SDS011;4647;48.072;11.616;2023-11-18T15:26:24;4.73;;;2.60;;
9224;SDS011;4647;48.072;11.616;2023-11-18T15:28:52;4.23;;;2.13;;
9224;SDS011;4647;48.072;11.616;2023-11-18T15:31:24;4.17;;;2.30;;
9224;SDS011;4647;48.072;11.616;2023-11-18T15:33:54;4.13;;;2.40;;
9224;SDS011;4647;48.072;11.616;2023-11-18T15:36:22;7.20;;;3.20;;